createdAt,value
2022-10-04T00:00:11.523Z,13.31
2022-10-04T00:05:18.956Z,13.25
2022-10-04T00:10:26.730Z,13.18
2022-10-04T00:15:33.863Z,13.14
2022-10-04T00:20:57.932Z,13.05
2022-10-04T00:26:05.403Z,13.02
2022-10-04T00:31:13.347Z,12.97
2022-10-04T00:36:53.988Z,12.88
2022-10-04T00:42:09.996Z,12.78
2022-10-04T00:47:22.635Z,12.77
2022-10-04T00:52:28.604Z,12.78
2022-10-04T00:57:39.994Z,12.65
2022-10-04T01:02:53.551Z,12.56
2022-10-04T01:08:04.760Z,12.51
2022-10-04T01:13:15.173Z,12.50
2022-10-04T01:18:30.679Z,12.53
2022-10-04T01:23:38.170Z,12.53
2022-10-04T01:28:41.980Z,12.49
2022-10-04T01:33:46.534Z,12.44
2022-10-04T01:38:52.591Z,12.49
2022-10-04T01:44:01.310Z,12.43
2022-10-04T01:49:08.723Z,12.32
2022-10-04T01:54:18.384Z,12.28
2022-10-04T01:59:28.226Z,12.23
2022-10-04T02:04:35.265Z,12.18
2022-10-04T02:09:43.705Z,12.07
2022-10-04T02:14:53.169Z,12.05
2022-10-04T02:19:58.721Z,11.95
2022-10-04T02:25:04.280Z,11.89
2022-10-04T02:30:10.852Z,11.86
2022-10-04T02:35:15.841Z,11.83
2022-10-04T02:40:26.239Z,11.76
2022-10-04T02:45:39.419Z,11.66
2022-10-04T02:50:49.508Z,11.61
2022-10-04T02:55:56.948Z,11.58
2022-10-04T03:01:01.883Z,11.47
2022-10-04T03:06:09.039Z,11.47
2022-10-04T03:11:15.952Z,11.40
2022-10-04T03:16:20.952Z,11.32
2022-10-04T03:21:26.421Z,11.30
2022-10-04T03:26:38.245Z,11.28
2022-10-04T03:31:45.731Z,11.24
2022-10-04T03:36:51.501Z,11.17
2022-10-04T03:41:58.573Z,11.08
2022-10-04T03:47:02.788Z,11.08
2022-10-04T03:52:08.532Z,10.98
2022-10-04T03:57:14.136Z,10.94
2022-10-04T04:02:30.956Z,10.92
2022-10-04T04:07:40.279Z,10.86
2022-10-04T04:12:48.465Z,10.74
2022-10-04T04:17:55.221Z,10.78
2022-10-04T04:23:04.753Z,10.76
2022-10-04T04:28:25.561Z,10.75
2022-10-04T04:33:32.484Z,10.63
2022-10-04T04:38:56.437Z,10.68
2022-10-04T04:44:01.922Z,10.58
2022-10-04T04:49:06.397Z,10.54
2022-10-04T04:54:10.204Z,10.46
2022-10-04T04:59:16.575Z,10.40
2022-10-04T05:04:23.051Z,10.38
2022-10-04T05:09:30.381Z,10.35
2022-10-04T05:14:36.250Z,10.33
2022-10-04T05:19:41.363Z,10.26
2022-10-04T05:24:47.623Z,10.26
2022-10-04T05:30:03.698Z,10.23
2022-10-04T05:35:17.715Z,10.17
2022-10-04T05:40:42.447Z,10.22
2022-10-04T05:45:47.871Z,10.17
2022-10-04T05:50:51.714Z,10.21
2022-10-04T05:56:07.675Z,10.21
2022-10-04T06:01:29.083Z,10.27
2022-10-04T06:06:41.584Z,10.29
2022-10-04T06:11:55.763Z,10.27
2022-10-04T06:17:21.366Z,10.29
2022-10-04T06:22:26.824Z,10.24
2022-10-04T06:27:37.080Z,10.32
2022-10-04T06:32:59.185Z,10.30
2022-10-04T06:38:26.072Z,10.31
2022-10-04T06:43:43.239Z,10.31
2022-10-04T06:49:32.949Z,10.26
2022-10-04T06:54:52.901Z,10.17
2022-10-04T07:00:23.108Z,10.27
2022-10-04T07:05:35.027Z,10.31
2022-10-04T07:10:47.520Z,10.32
2022-10-04T07:15:56.849Z,10.47
2022-10-04T07:21:06.886Z,10.63
2022-10-04T07:26:22.277Z,10.74
2022-10-04T07:31:29.589Z,10.81
2022-10-04T07:36:46.866Z,11.02
2022-10-04T07:41:53.819Z,11.09
2022-10-04T07:47:02.143Z,11.27
2022-10-04T07:52:24.335Z,11.45
2022-10-04T07:57:38.087Z,11.65
2022-10-04T08:02:56.665Z,11.84
2022-10-04T08:08:25.515Z,12.02
2022-10-04T08:13:41.981Z,12.21
2022-10-04T08:19:00.039Z,12.46
2022-10-04T08:24:21.610Z,12.54
2022-10-04T08:29:49.363Z,12.73
2022-10-04T08:35:05.236Z,12.83
2022-10-04T08:40:36.317Z,13.07
2022-10-04T08:46:05.863Z,13.31
2022-10-04T08:51:41.645Z,13.49
2022-10-04T08:56:59.390Z,13.75
2022-10-04T09:02:24.206Z,13.87
2022-10-04T09:07:53.713Z,14.13
2022-10-04T09:13:34.098Z,14.20
2022-10-04T09:19:19.642Z,14.04
2022-10-04T09:24:54.164Z,14.16
2022-10-04T09:30:12.109Z,14.22
2022-10-04T09:35:39.019Z,14.73
2022-10-04T09:41:06.574Z,15.02
2022-10-04T09:46:33.076Z,15.11
2022-10-04T09:51:55.754Z,15.42
2022-10-04T09:57:14.060Z,15.79
2022-10-04T10:02:57.341Z,16.15
2022-10-04T10:08:14.215Z,16.72
2022-10-04T10:13:43.078Z,17.34
2022-10-04T10:19:00.174Z,18.28
2022-10-04T10:24:30.169Z,19.57
2022-10-04T10:29:51.943Z,19.94
2022-10-04T10:35:35.417Z,19.57
2022-10-04T10:40:59.948Z,19.97
2022-10-04T10:46:28.480Z,20.47
2022-10-04T10:51:50.255Z,20.23
2022-10-04T10:57:06.357Z,20.44
2022-10-04T11:02:49.763Z,20.96
2022-10-04T11:07:56.438Z,21.09
2022-10-04T11:13:26.943Z,21.80
2022-10-04T11:18:57.405Z,21.46
2022-10-04T11:24:35.519Z,21.68
2022-10-04T11:29:55.822Z,22.29
2022-10-04T11:35:37.160Z,22.75
2022-10-04T11:40:54.604Z,22.50
2022-10-04T11:46:17.893Z,21.47
2022-10-04T11:52:02.075Z,20.91
2022-10-04T11:57:15.917Z,20.59
2022-10-04T12:02:56.855Z,21.47
2022-10-04T12:08:17.345Z,22.14
2022-10-04T12:13:37.920Z,22.44
2022-10-04T12:19:13.487Z,23.73
2022-10-04T12:24:38.397Z,24.95
2022-10-04T12:30:15.706Z,25.05
2022-10-04T12:35:27.199Z,25.81
2022-10-04T12:40:38.110Z,25.89
2022-10-04T12:45:52.938Z,26.73
2022-10-04T12:51:16.147Z,27.41
2022-10-04T12:56:37.267Z,26.58
2022-10-04T13:01:52.556Z,27.55
2022-10-04T13:07:14.650Z,28.02
2022-10-04T13:12:31.483Z,28.60
2022-10-04T13:17:47.065Z,28.62
2022-10-04T13:23:00.700Z,28.91
2022-10-04T13:28:13.118Z,29.08
2022-10-04T13:33:26.921Z,29.11
2022-10-04T13:38:53.577Z,29.44
2022-10-04T13:44:30.121Z,29.14
2022-10-04T13:49:48.464Z,28.84
2022-10-04T13:55:31.021Z,29.23
2022-10-04T14:00:48.030Z,29.06
2022-10-04T14:06:19.608Z,29.02
2022-10-04T14:11:44.769Z,27.05
2022-10-04T14:17:14.360Z,25.87
2022-10-04T14:22:54.381Z,25.05
2022-10-04T14:28:35.724Z,26.11
2022-10-04T14:34:16.543Z,26.58
2022-10-04T14:39:39.529Z,27.11
2022-10-04T14:45:04.339Z,27.17
2022-10-04T14:50:24.887Z,25.93
2022-10-04T14:56:06.773Z,24.99
2022-10-04T15:01:21.034Z,26.13
2022-10-04T15:06:36.158Z,25.33
2022-10-04T15:11:57.507Z,24.80
2022-10-04T15:17:25.339Z,24.63
2022-10-04T15:22:37.608Z,24.15
2022-10-04T15:27:56.582Z,23.76
2022-10-04T15:33:34.012Z,23.08
2022-10-04T15:38:48.540Z,23.13
2022-10-04T15:44:29.744Z,22.92
2022-10-04T15:49:52.618Z,22.53
2022-10-04T15:55:27.069Z,22.23
2022-10-04T16:00:47.986Z,22.19
2022-10-04T16:06:03.422Z,22.27
2022-10-04T16:11:31.986Z,22.02
2022-10-04T16:17:12.107Z,21.49
2022-10-04T16:22:19.267Z,21.44
2022-10-04T16:27:57.205Z,21.33
2022-10-04T16:33:07.288Z,20.99
2022-10-04T16:38:25.299Z,21.15
2022-10-04T16:43:29.359Z,20.75
2022-10-04T16:48:40.272Z,20.83
2022-10-04T16:53:52.484Z,20.81
2022-10-04T16:59:00.337Z,20.75
2022-10-04T17:04:21.356Z,20.67
2022-10-04T17:09:30.853Z,20.39
2022-10-04T17:14:57.748Z,20.12
2022-10-04T17:20:08.247Z,19.97
2022-10-04T17:25:28.667Z,19.77
2022-10-04T17:30:46.093Z,19.57
2022-10-04T17:36:01.468Z,19.43
2022-10-04T17:41:17.840Z,19.24
2022-10-04T17:46:30.458Z,19.10
2022-10-04T17:51:58.313Z,19.00
2022-10-04T17:57:23.011Z,18.83
2022-10-04T18:02:39.448Z,18.69
2022-10-04T18:07:48.933Z,18.74
2022-10-04T18:12:59.644Z,18.45
2022-10-04T18:18:16.091Z,18.42
2022-10-04T18:23:27.316Z,18.39
2022-10-04T18:28:34.759Z,18.26
2022-10-04T18:33:50.122Z,18.24
2022-10-04T18:39:05.501Z,18.24
2022-10-04T18:44:15.734Z,17.84
2022-10-04T18:49:24.765Z,17.76
2022-10-04T18:54:36.547Z,17.92
2022-10-04T19:00:09.236Z,17.90
2022-10-04T19:05:19.535Z,17.77
2022-10-04T19:10:28.971Z,17.66
2022-10-04T19:15:44.265Z,17.65
2022-10-04T19:20:52.817Z,17.65
2022-10-04T19:26:30.562Z,17.40
2022-10-04T19:31:35.147Z,17.11
2022-10-04T19:36:49.027Z,17.08
2022-10-04T19:41:59.368Z,17.22
2022-10-04T19:47:13.289Z,17.19
2022-10-04T19:52:23.331Z,17.13
2022-10-04T19:57:39.564Z,16.99
2022-10-04T20:02:48.704Z,17.03
2022-10-04T20:07:57.095Z,16.98
2022-10-04T20:13:24.140Z,17.02
2022-10-04T20:18:59.601Z,16.94
2022-10-04T20:24:03.671Z,16.70
2022-10-04T20:29:08.497Z,16.91
2022-10-04T20:34:34.208Z,16.65
2022-10-04T20:40:02.160Z,16.62
2022-10-04T20:45:27.925Z,16.65
2022-10-04T20:50:42.277Z,16.69
2022-10-04T20:55:46.804Z,16.54
2022-10-04T21:00:54.733Z,16.67
2022-10-04T21:06:06.059Z,16.56
2022-10-04T21:11:20.536Z,16.61
2022-10-04T21:16:38.142Z,16.59
2022-10-04T21:22:01.657Z,16.61
2022-10-04T21:27:07.004Z,16.66
2022-10-04T21:32:10.807Z,16.66
2022-10-04T21:37:16.082Z,16.62
2022-10-04T21:42:19.832Z,16.70
2022-10-04T21:47:23.693Z,16.48
2022-10-04T21:52:28.810Z,16.62
2022-10-04T21:57:35.678Z,16.53
2022-10-04T22:02:39.582Z,16.49
2022-10-04T22:07:44.722Z,16.29
2022-10-04T22:12:48.445Z,16.36
2022-10-04T22:17:52.230Z,16.35
2022-10-04T22:22:57.635Z,16.39
2022-10-04T22:28:01.466Z,16.42
2022-10-04T22:33:28.582Z,16.41
2022-10-04T22:38:33.642Z,16.34
2022-10-04T22:43:37.479Z,16.35
2022-10-04T22:48:41.266Z,16.30
2022-10-04T22:53:47.693Z,16.39
2022-10-04T22:58:51.422Z,16.37
2022-10-04T23:03:58.841Z,16.37
2022-10-04T23:09:03.967Z,16.30
2022-10-04T23:14:07.759Z,16.25
2022-10-04T23:19:14.722Z,16.21
2022-10-04T23:24:21.976Z,16.30
2022-10-04T23:29:28.818Z,16.23
2022-10-04T23:34:36.479Z,16.22
2022-10-04T23:39:41.899Z,16.17
2022-10-04T23:44:47.907Z,16.13
2022-10-04T23:49:54.463Z,16.08
2022-10-04T23:54:59.589Z,16.13
